Time;durP1;ratioP1;P1;durP2;ratioP2;P2;SDS_P1;SDS_P2;PMS_P1;PMS_P2;Temp;Humidity;BMP_temperature;BMP_pressure;BME280_temperature;BME280_humidity;BME280_pressure;Samples;Min_cycle;Max_cycle;Signal;HPM_P1;HPM_P2
2023/03/10 00:00:20;;;;;;;72.10;28.20;;;;;;;-128.00;-1.00;-1.00;97844;295;1003690;-36
2023/03/10 00:02:48;;;;;;;71.80;27.00;;;;;;;-128.00;-1.00;-1.00;97904;295;1003356;-34
2023/03/10 00:05:17;;;;;;;80.50;30.80;;;;;;;-128.00;-1.00;-1.00;97888;295;1003391;-33
2023/03/10 00:07:43;;;;;;;75.10;29.00;;;;;;;-128.00;-1.00;-1.00;97972;284;1002941;-33
2023/03/10 00:10:12;;;;;;;74.60;32.30;;;;;;;-128.00;-1.00;-1.00;97879;295;1003699;-32
2023/03/10 00:12:37;;;;;;;70.90;29.00;;;;;;;-128.00;-1.00;-1.00;97963;295;1003855;-32
2023/03/10 00:15:04;;;;;;;75.90;32.70;;;;;;;-128.00;-1.00;-1.00;97908;295;1003898;-33
2023/03/10 00:17:30;;;;;;;69.60;28.10;;;;;;;-128.00;-1.00;-1.00;97846;295;1003691;-35
2023/03/10 00:19:56;;;;;;;66.10;32.60;;;;;;;-128.00;-1.00;-1.00;97859;295;1003276;-36
2023/03/10 00:22:22;;;;;;;60.90;26.40;;;;;;;-128.00;-1.00;-1.00;98010;296;1003903;-33
2023/03/10 00:24:48;;;;;;;80.60;30.30;;;;;;;-128.00;-1.00;-1.00;97889;295;1003286;-34
2023/03/10 00:27:13;;;;;;;62.60;27.60;;;;;;;-128.00;-1.00;-1.00;97898;295;1003515;-32
2023/03/10 00:29:39;;;;;;;63.20;28.60;;;;;;;-128.00;-1.00;-1.00;97710;295;1003199;-31
2023/03/10 00:32:06;;;;;;;62.50;28.00;;;;;;;-128.00;-1.00;-1.00;97937;295;1003457;-33
2023/03/10 00:34:32;;;;;;;83.30;32.10;;;;;;;-128.00;-1.00;-1.00;97897;288;1004524;-31
2023/03/10 00:36:57;;;;;;;74.80;29.60;;;;;;;-128.00;-1.00;-1.00;97864;284;1003449;-31
2023/03/10 00:39:23;;;;;;;100.20;32.70;;;;;;;-128.00;-1.00;-1.00;97921;288;1002817;-33
2023/03/10 00:41:49;;;;;;;80.00;33.40;;;;;;;-128.00;-1.00;-1.00;97800;295;1002829;-36
2023/03/10 00:44:15;;;;;;;71.00;30.80;;;;;;;-128.00;-1.00;-1.00;97895;295;1003350;-35
2023/03/10 00:46:40;;;;;;;82.20;32.20;;;;;;;-128.00;-1.00;-1.00;97916;295;1003029;-32
2023/03/10 00:49:06;;;;;;;64.00;26.50;;;;;;;-128.00;-1.00;-1.00;97872;295;1003967;-31
2023/03/10 00:51:33;;;;;;;66.90;28.10;;;;;;;-128.00;-1.00;-1.00;97693;295;1002919;-30
2023/03/10 00:54:00;;;;;;;62.10;28.10;;;;;;;-128.00;-1.00;-1.00;97955;295;1002900;-32
2023/03/10 00:56:25;;;;;;;68.70;28.60;;;;;;;-128.00;-1.00;-1.00;97969;295;1003487;-31
2023/03/10 00:58:53;;;;;;;63.10;27.30;;;;;;;-128.00;-1.00;-1.00;97773;295;1003869;-33
2023/03/10 01:01:23;;;;;;;52.40;23.70;;;;;;;-128.00;-1.00;-1.00;97842;295;1002889;-32
2023/03/10 01:03:50;;;;;;;61.00;24.80;;;;;;;-128.00;-1.00;-1.00;97921;295;1005494;-31
2023/03/10 01:06:15;;;;;;;57.80;26.50;;;;;;;-128.00;-1.00;-1.00;97861;295;1004318;-32
2023/03/10 01:08:41;;;;;;;62.80;24.10;;;;;;;-128.00;-1.00;-1.00;97894;295;1004850;-31
2023/03/10 01:11:07;;;;;;;61.50;24.30;;;;;;;-128.00;-1.00;-1.00;97779;295;1002899;-33
2023/03/10 01:13:33;;;;;;;58.30;25.80;;;;;;;-128.00;-1.00;-1.00;97931;295;1003749;-30
2023/03/10 01:15:59;;;;;;;67.30;27.10;;;;;;;-128.00;-1.00;-1.00;97970;295;1003863;-34
2023/03/10 01:18:24;;;;;;;60.00;22.80;;;;;;;-128.00;-1.00;-1.00;97871;295;1004414;-34
2023/03/10 01:20:51;;;;;;;57.30;26.10;;;;;;;-128.00;-1.00;-1.00;97943;295;1003545;-32
2023/03/10 01:23:22;;;;;;;56.50;23.50;;;;;;;-128.00;-1.00;-1.00;97991;288;1003224;-31
2023/03/10 01:25:47;;;;;;;59.90;26.40;;;;;;;-128.00;-1.00;-1.00;98030;295;1003286;-31
2023/03/10 01:28:13;;;;;;;55.50;25.20;;;;;;;-128.00;-1.00;-1.00;98018;295;1002703;-33
2023/03/10 01:30:39;;;;;;;61.50;26.70;;;;;;;-128.00;-1.00;-1.00;97845;288;1004260;-34
2023/03/10 01:33:06;;;;;;;54.50;23.70;;;;;;;-128.00;-1.00;-1.00;97809;295;1004211;-33
2023/03/10 01:35:32;;;;;;;57.30;23.60;;;;;;;-128.00;-1.00;-1.00;97925;295;1003081;-31
2023/03/10 01:37:58;;;;;;;46.70;20.30;;;;;;;-128.00;-1.00;-1.00;97951;295;1002753;-33
2023/03/10 01:40:25;;;;;;;58.70;22.30;;;;;;;-128.00;-1.00;-1.00;97895;295;1004230;-30
2023/03/10 01:42:51;;;;;;;52.70;23.80;;;;;;;-128.00;-1.00;-1.00;97995;295;1004324;-31
2023/03/10 01:45:57;;;;;;;52.30;21.80;;;;;;;-128.00;-1.00;-1.00;97906;285;1003847;-30
2023/03/10 01:48:22;;;;;;;48.00;21.90;;;;;;;-128.00;-1.00;-1.00;97993;295;1004527;-30
2023/03/10 01:50:51;;;;;;;58.00;19.60;;;;;;;-128.00;-1.00;-1.00;97954;295;1004254;-35
2023/03/10 01:53:16;;;;;;;50.90;23.30;;;;;;;-128.00;-1.00;-1.00;97918;295;1003249;-33
2023/03/10 01:55:45;;;;;;;51.80;21.80;;;;;;;-128.00;-1.00;-1.00;97991;295;1003294;-33
2023/03/10 01:58:11;;;;;;;51.10;21.80;;;;;;;-128.00;-1.00;-1.00;97786;295;1003004;-32
2023/03/10 02:00:38;;;;;;;39.30;18.40;;;;;;;-128.00;-1.00;-1.00;97933;295;1004038;-34
2023/03/10 02:03:14;;;;;;;37.90;18.30;;;;;;;-128.00;-1.00;-1.00;97931;295;1003247;-34
2023/03/10 02:05:51;;;;;;;38.30;18.80;;;;;;;-128.00;-1.00;-1.00;97891;288;1003694;-33
2023/03/10 02:08:16;;;;;;;40.30;20.40;;;;;;;-128.00;-1.00;-1.00;97808;295;1003247;-29
2023/03/10 02:10:44;;;;;;;46.70;20.30;;;;;;;-128.00;-1.00;-1.00;97909;295;1003778;-29
2023/03/10 02:13:10;;;;;;;43.70;17.20;;;;;;;-128.00;-1.00;-1.00;97971;295;1002992;-30
2023/03/10 02:15:35;;;;;;;42.50;19.00;;;;;;;-128.00;-1.00;-1.00;97986;295;1004369;-30
2023/03/10 02:18:02;;;;;;;37.90;18.50;;;;;;;-128.00;-1.00;-1.00;97816;295;1003169;-32
2023/03/10 02:20:47;;;;;;;31.00;16.10;;;;;;;-128.00;-1.00;-1.00;97865;285;1003781;-31
2023/03/10 02:23:17;;;;;;;43.10;20.00;;;;;;;-128.00;-1.00;-1.00;97990;295;1003803;-30
2023/03/10 02:25:53;;;;;;;41.00;18.00;;;;;;;-128.00;-1.00;-1.00;97910;295;1003400;-31
2023/03/10 02:28:19;;;;;;;36.70;17.40;;;;;;;-128.00;-1.00;-1.00;97868;295;1003775;-33
2023/03/10 02:30:46;;;;;;;48.90;19.00;;;;;;;-128.00;-1.00;-1.00;98002;295;1003506;-33
2023/03/10 02:33:20;;;;;;;39.30;18.40;;;;;;;-128.00;-1.00;-1.00;97915;295;1003386;-32
2023/03/10 02:35:46;;;;;;;35.50;17.50;;;;;;;-128.00;-1.00;-1.00;97941;295;1004135;-32
2023/03/10 02:38:12;;;;;;;33.10;14.70;;;;;;;-128.00;-1.00;-1.00;97825;295;1003401;-30
2023/03/10 02:40:50;;;;;;;49.00;15.90;;;;;;;-128.00;-1.00;-1.00;97749;295;1003436;-32
2023/03/10 02:43:30;;;;;;;34.50;15.90;;;;;;;-128.00;-1.00;-1.00;95472;295;2438095;-30
2023/03/10 02:45:58;;;;;;;48.40;16.90;;;;;;;-128.00;-1.00;-1.00;97903;295;1003927;-31
2023/03/10 02:48:36;;;;;;;31.20;14.40;;;;;;;-128.00;-1.00;-1.00;97913;295;1003724;-29
2023/03/10 02:51:03;;;;;;;26.10;12.60;;;;;;;-128.00;-1.00;-1.00;97849;295;1003811;-32
2023/03/10 02:53:29;;;;;;;40.60;16.20;;;;;;;-128.00;-1.00;-1.00;97998;295;1003737;-34
2023/03/10 02:55:55;;;;;;;31.70;15.70;;;;;;;-128.00;-1.00;-1.00;97915;297;1002974;-32
2023/03/10 02:58:22;;;;;;;34.70;15.50;;;;;;;-128.00;-1.00;-1.00;97979;295;1003254;-32
2023/03/10 03:00:49;;;;;;;29.80;14.70;;;;;;;-128.00;-1.00;-1.00;97793;284;1003709;-29
2023/03/10 03:03:15;;;;;;;30.90;13.30;;;;;;;-128.00;-1.00;-1.00;97805;295;1004063;-33
2023/03/10 03:05:41;;;;;;;35.50;16.40;;;;;;;-128.00;-1.00;-1.00;97886;296;1003636;-31
2023/03/10 03:08:07;;;;;;;29.70;13.70;;;;;;;-128.00;-1.00;-1.00;97894;295;1003367;-33
2023/03/10 03:10:33;;;;;;;29.60;13.30;;;;;;;-128.00;-1.00;-1.00;97955;295;1003519;-30
2023/03/10 03:12:59;;;;;;;21.10;11.40;;;;;;;-128.00;-1.00;-1.00;97817;295;1003335;-33
2023/03/10 03:15:25;;;;;;;27.10;12.30;;;;;;;-128.00;-1.00;-1.00;97976;295;1003332;-33
2023/03/10 03:17:53;;;;;;;33.40;14.00;;;;;;;-128.00;-1.00;-1.00;98046;295;1003460;-35
2023/03/10 03:20:20;;;;;;;25.80;13.70;;;;;;;-128.00;-1.00;-1.00;97710;295;1264974;-29
2023/03/10 03:22:46;;;;;;;25.50;13.60;;;;;;;-128.00;-1.00;-1.00;97860;295;1003671;-35
2023/03/10 03:25:13;;;;;;;28.50;11.70;;;;;;;-128.00;-1.00;-1.00;97951;295;1004016;-29
2023/03/10 03:27:40;;;;;;;28.30;12.60;;;;;;;-128.00;-1.00;-1.00;97841;297;1003186;-32
2023/03/10 03:30:07;;;;;;;44.80;11.00;;;;;;;-128.00;-1.00;-1.00;97896;295;1004666;-34
2023/03/10 03:32:34;;;;;;;21.70;10.70;;;;;;;-128.00;-1.00;-1.00;97986;295;1003856;-32
2023/03/10 03:35:00;;;;;;;31.10;9.10;;;;;;;-128.00;-1.00;-1.00;97930;295;1004233;-32
2023/03/10 03:37:25;;;;;;;21.20;9.30;;;;;;;-128.00;-1.00;-1.00;97845;296;1003531;-30
2023/03/10 03:39:51;;;;;;;19.50;11.00;;;;;;;-128.00;-1.00;-1.00;97992;295;1002973;-30
2023/03/10 03:42:17;;;;;;;22.20;9.30;;;;;;;-128.00;-1.00;-1.00;97862;295;1003876;-29
2023/03/10 03:44:43;;;;;;;19.10;7.80;;;;;;;-128.00;-1.00;-1.00;95965;295;2895228;-31
2023/03/10 03:47:09;;;;;;;22.70;8.50;;;;;;;-128.00;-1.00;-1.00;97967;295;1003311;-33
2023/03/10 03:49:36;;;;;;;15.30;8.90;;;;;;;-128.00;-1.00;-1.00;97860;295;1003253;-30
2023/03/10 03:52:03;;;;;;;7.80;6.30;;;;;;;-128.00;-1.00;-1.00;97835;295;1005367;-32
2023/03/10 03:54:29;;;;;;;7.40;4.80;;;;;;;-128.00;-1.00;-1.00;97788;286;1003036;-30
2023/03/10 03:56:55;;;;;;;12.20;7.70;;;;;;;-128.00;-1.00;-1.00;98000;295;1003084;-35
2023/03/10 03:59:20;;;;;;;10.50;6.80;;;;;;;-128.00;-1.00;-1.00;97972;285;1003907;-34
2023/03/10 04:01:47;;;;;;;11.70;7.00;;;;;;;-128.00;-1.00;-1.00;97951;284;1002533;-33
2023/03/10 04:04:13;;;;;;;10.10;6.00;;;;;;;-128.00;-1.00;-1.00;98026;295;1004355;-31
2023/03/10 04:06:39;;;;;;;15.80;6.60;;;;;;;-128.00;-1.00;-1.00;97929;295;1003301;-33
2023/03/10 04:09:05;;;;;;;7.90;4.60;;;;;;;-128.00;-1.00;-1.00;98028;295;1003098;-31
2023/03/10 04:11:31;;;;;;;18.50;5.60;;;;;;;-128.00;-1.00;-1.00;97868;295;1003079;-31
2023/03/10 04:13:57;;;;;;;10.20;5.00;;;;;;;-128.00;-1.00;-1.00;97957;295;1004850;-30
2023/03/10 04:16:23;;;;;;;8.90;5.70;;;;;;;-128.00;-1.00;-1.00;97846;295;1004090;-30
2023/03/10 04:18:49;;;;;;;18.80;5.00;;;;;;;-128.00;-1.00;-1.00;97840;295;1003411;-31
2023/03/10 04:21:16;;;;;;;13.90;4.60;;;;;;;-128.00;-1.00;-1.00;97955;295;1003771;-29
2023/03/10 04:23:42;;;;;;;9.20;4.50;;;;;;;-128.00;-1.00;-1.00;97869;295;1003192;-32
2023/03/10 04:26:08;;;;;;;9.10;4.00;;;;;;;-128.00;-1.00;-1.00;97898;295;1003724;-32
2023/03/10 04:28:34;;;;;;;8.20;5.10;;;;;;;-128.00;-1.00;-1.00;97904;295;1003406;-31
2023/03/10 04:31:00;;;;;;;12.40;4.60;;;;;;;-128.00;-1.00;-1.00;98070;295;1003488;-32
2023/03/10 04:33:25;;;;;;;5.30;4.00;;;;;;;-128.00;-1.00;-1.00;97940;295;1003242;-31
2023/03/10 04:35:52;;;;;;;16.70;4.50;;;;;;;-128.00;-1.00;-1.00;97931;295;1003752;-34
2023/03/10 05:16:15;;;;;;;7.20;3.30;;;;;;;-101.48;19.20;19448.82;98291;293;1544292;-37
2023/03/10 05:18:41;;;;;;;8.60;2.50;;;;;;;-128.00;-1.00;-1.00;97579;294;1003304;-32
2023/03/10 05:21:07;;;;;;;7.10;3.30;;;;;;;-128.00;-1.00;-1.00;98069;293;1002903;-34
2023/03/10 05:23:33;;;;;;;4.10;1.90;;;;;;;-128.00;-1.00;-1.00;81658;294;4353321;-31
2023/03/10 05:26:03;;;;;;;5.00;1.60;;;;;;;-128.00;-1.00;-1.00;32022;294;7504200;-35
2023/03/10 05:28:30;;;;;;;11.50;3.70;;;;;;;-128.00;-1.00;-1.00;18896;294;7504273;-31
2023/03/10 05:30:55;;;;;;;4.80;2.40;;;;;;;-128.00;-1.00;-1.00;18490;294;7506026;-33
2023/03/10 05:33:22;;;;;;;6.70;2.90;;;;;;;-128.00;-1.00;-1.00;18882;298;7504378;-34
2023/03/10 05:35:48;;;;;;;3.40;2.70;;;;;;;-128.00;-1.00;-1.00;18496;305;7506014;-33
2023/03/10 05:38:15;;;;;;;2.10;1.40;;;;;;;-128.00;-1.00;-1.00;18498;334;7506264;-35
2023/03/10 05:40:41;;;;;;;14.10;2.70;;;;;;;-128.00;-1.00;-1.00;18483;294;7505016;-35
2023/03/10 05:43:07;;;;;;;4.20;2.40;;;;;;;-128.00;-1.00;-1.00;18489;294;7505930;-32
2023/03/10 05:45:33;;;;;;;4.50;2.80;;;;;;;-128.00;-1.00;-1.00;18480;294;7504481;-33
2023/03/10 05:47:59;;;;;;;7.50;2.00;;;;;;;-128.00;-1.00;-1.00;18496;294;7506048;-32
2023/03/10 05:50:25;;;;;;;5.90;3.50;;;;;;;-128.00;-1.00;-1.00;18501;293;7504369;-31
2023/03/10 05:52:52;;;;;;;2.20;1.40;;;;;;;-128.00;-1.00;-1.00;18902;294;7503928;-37
2023/03/10 05:55:19;;;;;;;6.00;2.30;;;;;;;-128.00;-1.00;-1.00;18876;294;7504287;-32
2023/03/10 05:57:45;;;;;;;10.50;2.60;;;;;;;-128.00;-1.00;-1.00;18498;286;7506088;-32
2023/03/10 06:00:11;;;;;;;3.70;1.90;;;;;;;-128.00;-1.00;-1.00;18525;294;7506445;-34
2023/03/10 06:02:37;;;;;;;3.60;1.90;;;;;;;-128.00;-1.00;-1.00;18497;334;7505381;-34
2023/03/10 06:05:05;;;;;;;9.10;1.70;;;;;;;-128.00;-1.00;-1.00;18490;294;7505870;-31
2023/03/10 06:07:31;;;;;;;5.90;1.50;;;;;;;-128.00;-1.00;-1.00;18469;294;7505047;-31
2023/03/10 06:09:57;;;;;;;5.50;1.70;;;;;;;-128.00;-1.00;-1.00;18484;294;7504822;-34
2023/03/10 06:12:23;;;;;;;8.00;1.40;;;;;;;-128.00;-1.00;-1.00;18484;293;7506595;-32
2023/03/10 06:14:49;;;;;;;2.00;1.10;;;;;;;-128.00;-1.00;-1.00;18510;338;7505091;-35
2023/03/10 06:17:15;;;;;;;4.40;2.10;;;;;;;-128.00;-1.00;-1.00;18476;345;7505254;-32
2023/03/10 06:19:41;;;;;;;9.30;1.60;;;;;;;-128.00;-1.00;-1.00;18482;295;7505119;-35
2023/03/10 06:22:07;;;;;;;3.40;1.70;;;;;;;-128.00;-1.00;-1.00;18458;346;7504844;-36
2023/03/10 06:24:33;;;;;;;20.10;2.40;;;;;;;-128.00;-1.00;-1.00;18495;294;7506350;-36
2023/03/10 06:26:59;;;;;;;3.70;1.70;;;;;;;-128.00;-1.00;-1.00;18499;294;7504488;-36
2023/03/10 06:29:24;;;;;;;3.80;1.40;;;;;;;-128.00;-1.00;-1.00;18503;294;7506628;-36
2023/03/10 06:31:50;;;;;;;4.90;2.20;;;;;;;-128.00;-1.00;-1.00;18485;294;7505227;-36
2023/03/10 06:34:16;;;;;;;8.90;1.90;;;;;;;-128.00;-1.00;-1.00;18483;294;7504438;-36
2023/03/10 06:36:42;;;;;;;7.10;2.90;;;;;;;-128.00;-1.00;-1.00;18492;294;7504826;-34
2023/03/10 06:39:08;;;;;;;10.00;3.30;;;;;;;-128.00;-1.00;-1.00;18502;294;7506439;-36
2023/03/10 06:41:34;;;;;;;5.30;1.50;;;;;;;-128.00;-1.00;-1.00;18489;305;7505887;-34
2023/03/10 06:44:00;;;;;;;8.90;1.80;;;;;;;-128.00;-1.00;-1.00;18467;287;7505757;-31
2023/03/10 06:46:26;;;;;;;3.20;1.80;;;;;;;-128.00;-1.00;-1.00;18511;294;7506299;-32
2023/03/10 06:48:52;;;;;;;5.10;1.70;;;;;;;-128.00;-1.00;-1.00;18459;294;7504764;-35
2023/03/10 06:51:18;;;;;;;3.50;2.00;;;;;;;-128.00;-1.00;-1.00;18485;346;7506007;-38
2023/03/10 06:53:44;;;;;;;9.30;1.60;;;;;;;-128.00;-1.00;-1.00;18483;294;7505939;-34
2023/03/10 06:56:12;;;;;;;2.90;1.70;;;;;;;-128.00;-1.00;-1.00;18482;302;7505366;-33
2023/03/10 06:58:38;;;;;;;6.10;1.30;;;;;;;-128.00;-1.00;-1.00;18473;347;7504909;-35
2023/03/10 07:01:04;;;;;;;2.90;1.70;;;;;;;-128.00;-1.00;-1.00;18497;286;7504921;-36
2023/03/10 07:03:30;;;;;;;3.40;1.50;;;;;;;-128.00;-1.00;-1.00;18532;294;7504603;-32
2023/03/10 07:05:59;;;;;;;4.20;1.50;;;;;;;-128.00;-1.00;-1.00;18524;338;7506422;-36
2023/03/10 07:08:26;;;;;;;3.40;1.60;;;;;;;-128.00;-1.00;-1.00;18502;294;7504871;-35
2023/03/10 07:10:52;;;;;;;6.90;1.20;;;;;;;-128.00;-1.00;-1.00;18482;334;7504964;-36
2023/03/10 07:13:18;;;;;;;9.80;1.60;;;;;;;-128.00;-1.00;-1.00;18493;294;7506617;-35
2023/03/10 07:15:44;;;;;;;7.50;1.50;;;;;;;-128.00;-1.00;-1.00;18449;329;7506552;-33
2023/03/10 07:18:11;;;;;;;2.20;2.00;;;;;;;-128.00;-1.00;-1.00;18507;294;7506302;-35
2023/03/10 07:20:39;;;;;;;4.00;1.10;;;;;;;-128.00;-1.00;-1.00;18493;346;7504597;-34
2023/03/10 07:23:04;;;;;;;2.40;1.10;;;;;;;-128.00;-1.00;-1.00;18506;309;7505207;-37
2023/03/10 07:25:30;;;;;;;2.20;1.30;;;;;;;-128.00;-1.00;-1.00;18484;294;7504339;-31
2023/03/10 07:27:56;;;;;;;2.90;1.00;;;;;;;-128.00;-1.00;-1.00;18512;294;7507056;-34
2023/03/10 07:30:22;;;;;;;5.80;1.20;;;;;;;-128.00;-1.00;-1.00;18489;294;7504652;-32
2023/03/10 07:32:51;;;;;;;4.10;1.00;;;;;;;-128.00;-1.00;-1.00;18530;294;7506685;-32
2023/03/10 07:35:17;;;;;;;3.50;1.70;;;;;;;-128.00;-1.00;-1.00;18515;334;7506055;-37
2023/03/10 07:37:43;;;;;;;9.00;2.10;;;;;;;-128.00;-1.00;-1.00;18507;294;7504704;-36
2023/03/10 07:40:09;;;;;;;4.10;1.60;;;;;;;-128.00;-1.00;-1.00;18486;338;7504740;-35
2023/03/10 07:42:35;;;;;;;7.40;1.10;;;;;;;-128.00;-1.00;-1.00;18509;294;7505985;-33
2023/03/10 07:45:01;;;;;;;2.70;1.50;;;;;;;-128.00;-1.00;-1.00;18495;294;7505856;-34
2023/03/10 07:47:27;;;;;;;2.90;1.60;;;;;;;-128.00;-1.00;-1.00;18492;346;7506234;-34
2023/03/10 07:49:53;;;;;;;2.00;1.00;;;;;;;-128.00;-1.00;-1.00;18468;325;7504685;-33
2023/03/10 07:52:19;;;;;;;2.10;1.40;;;;;;;-128.00;-1.00;-1.00;18510;294;7506318;-33
2023/03/10 07:54:45;;;;;;;3.70;1.00;;;;;;;-128.00;-1.00;-1.00;18460;295;7506385;-32
2023/03/10 07:57:12;;;;;;;2.00;0.90;;;;;;;-128.00;-1.00;-1.00;18487;294;7504324;-35
2023/03/10 07:59:38;;;;;;;3.60;1.50;;;;;;;-128.00;-1.00;-1.00;18497;294;7505536;-33
2023/03/10 08:02:04;;;;;;;4.20;1.10;;;;;;;-128.00;-1.00;-1.00;18477;294;7504079;-34
2023/03/10 08:04:30;;;;;;;4.40;1.30;;;;;;;-128.00;-1.00;-1.00;18484;294;7506145;-32
2023/03/10 08:06:56;;;;;;;2.30;0.90;;;;;;;-128.00;-1.00;-1.00;18497;294;7505958;-32
2023/03/10 08:09:21;;;;;;;7.90;0.90;;;;;;;-128.00;-1.00;-1.00;18450;334;7506295;-32
2023/03/10 08:11:47;;;;;;;2.70;1.10;;;;;;;-128.00;-1.00;-1.00;18487;294;7506814;-34
2023/03/10 08:14:14;;;;;;;1.60;0.70;;;;;;;-128.00;-1.00;-1.00;18489;294;7504602;-32
2023/03/10 08:16:40;;;;;;;9.20;1.40;;;;;;;-128.00;-1.00;-1.00;18493;294;7505970;-31
2023/03/10 08:19:06;;;;;;;1.80;0.90;;;;;;;-128.00;-1.00;-1.00;18498;294;7504796;-32
2023/03/10 08:21:33;;;;;;;1.60;0.80;;;;;;;-128.00;-1.00;-1.00;18500;294;7504869;-32
2023/03/10 08:23:58;;;;;;;2.50;0.80;;;;;;;-128.00;-1.00;-1.00;18480;294;7506226;-35
2023/03/10 08:26:24;;;;;;;2.10;1.00;;;;;;;-128.00;-1.00;-1.00;18478;294;7506237;-34
2023/03/10 08:28:50;;;;;;;14.50;2.10;;;;;;;-128.00;-1.00;-1.00;18473;346;7504856;-32
2023/03/10 08:31:17;;;;;;;2.90;1.00;;;;;;;-128.00;-1.00;-1.00;18503;294;7504630;-32
2023/03/10 08:33:43;;;;;;;6.10;1.20;;;;;;;-128.00;-1.00;-1.00;18481;294;7504673;-32
2023/03/10 08:36:14;;;;;;;8.90;1.60;;;;;;;-128.00;-1.00;-1.00;18492;294;7504421;-32
2023/03/10 08:38:39;;;;;;;3.10;1.10;;;;;;;-128.00;-1.00;-1.00;18478;294;7504807;-36
2023/03/10 08:41:16;;;;;;;1.40;1.00;;;;;;;-128.00;-1.00;-1.00;18479;338;7505074;-32
2023/03/10 08:43:42;;;;;;;3.50;1.30;;;;;;;-128.00;-1.00;-1.00;18482;294;7504284;-32
2023/03/10 08:46:08;;;;;;;8.00;2.20;;;;;;;-128.00;-1.00;-1.00;18456;290;7505151;-32
2023/03/10 08:48:34;;;;;;;2.50;0.90;;;;;;;-128.00;-1.00;-1.00;18483;294;7505547;-36
2023/03/10 08:51:00;;;;;;;2.80;0.90;;;;;;;-128.00;-1.00;-1.00;18486;338;7504238;-32
2023/03/10 08:53:26;;;;;;;4.10;1.30;;;;;;;-128.00;-1.00;-1.00;18477;294;7504887;-36
2023/03/10 08:55:51;;;;;;;6.70;1.30;;;;;;;-128.00;-1.00;-1.00;18492;309;7504216;-32
2023/03/10 08:58:17;;;;;;;3.60;1.10;;;;;;;-128.00;-1.00;-1.00;18479;294;7504872;-32
2023/03/10 09:00:43;;;;;;;1.60;0.80;;;;;;;-128.00;-1.00;-1.00;18471;294;7504884;-32
2023/03/10 09:03:10;;;;;;;3.20;0.90;;;;;;;-128.00;-1.00;-1.00;18500;294;7504879;-34
2023/03/10 09:05:36;;;;;;;7.00;1.50;;;;;;;-128.00;-1.00;-1.00;18495;346;7504360;-34
2023/03/10 09:08:03;;;;;;;5.90;2.90;;;;;;;-128.00;-1.00;-1.00;18456;294;7504980;-34
2023/03/10 09:10:29;;;;;;;6.80;1.20;;;;;;;-128.00;-1.00;-1.00;18465;294;7506002;-35
2023/03/10 09:12:55;;;;;;;2.60;1.40;;;;;;;-128.00;-1.00;-1.00;18502;294;7504724;-32
2023/03/10 09:15:21;;;;;;;4.70;1.60;;;;;;;-128.00;-1.00;-1.00;18474;294;7504593;-33
2023/03/10 09:17:47;;;;;;;6.90;1.50;;;;;;;-128.00;-1.00;-1.00;18488;294;7506323;-32
2023/03/10 09:20:14;;;;;;;8.20;1.30;;;;;;;-128.00;-1.00;-1.00;18468;294;7506001;-35
2023/03/10 09:22:42;;;;;;;2.40;1.40;;;;;;;-128.00;-1.00;-1.00;18471;294;7504212;-32
2023/03/10 09:25:09;;;;;;;3.50;1.00;;;;;;;-128.00;-1.00;-1.00;18460;294;7504463;-35
2023/03/10 09:27:34;;;;;;;4.60;1.40;;;;;;;-128.00;-1.00;-1.00;18498;294;7504621;-34
2023/03/10 09:30:00;;;;;;;11.00;1.20;;;;;;;-128.00;-1.00;-1.00;18470;294;7504739;-35
2023/03/10 09:32:26;;;;;;;4.00;1.60;;;;;;;-128.00;-1.00;-1.00;18509;294;7505814;-32
2023/03/10 09:34:52;;;;;;;6.90;1.10;;;;;;;-128.00;-1.00;-1.00;18462;305;7504556;-32
2023/03/10 09:37:18;;;;;;;2.80;1.80;;;;;;;-128.00;-1.00;-1.00;18470;294;7504870;-33
2023/03/10 09:39:44;;;;;;;12.00;2.20;;;;;;;-128.00;-1.00;-1.00;18492;286;7504606;-33
2023/03/10 09:42:36;;;;;;;4.00;2.80;;;;;;;-128.00;-1.00;-1.00;18481;294;7504794;-31
2023/03/10 09:45:19;;;;;;;8.40;1.80;;;;;;;-128.00;-1.00;-1.00;18474;294;7504736;-34
2023/03/10 09:48:09;;;;;;;4.00;1.10;;;;;;;-128.00;-1.00;-1.00;18515;294;7504973;-34
2023/03/10 09:50:42;;;;;;;3.00;1.10;;;;;;;-128.00;-1.00;-1.00;18496;294;7505756;-34
2023/03/10 09:53:24;;;;;;;2.80;1.60;;;;;;;-128.00;-1.00;-1.00;18500;347;7505128;-31
2023/03/10 09:55:50;;;;;;;2.70;1.50;;;;;;;-128.00;-1.00;-1.00;18519;294;7505046;-32
2023/03/10 09:58:36;;;;;;;4.30;2.10;;;;;;;-128.00;-1.00;-1.00;18496;346;7506830;-31
2023/03/10 10:01:02;;;;;;;1.70;1.10;;;;;;;-128.00;-1.00;-1.00;18498;294;7504750;-35
2023/03/10 10:03:36;;;;;;;9.10;1.20;;;;;;;-128.00;-1.00;-1.00;18474;294;7504938;-32
2023/03/10 10:06:02;;;;;;;6.70;1.80;;;;;;;-128.00;-1.00;-1.00;18484;294;7504659;-33
2023/03/10 10:08:41;;;;;;;3.00;1.50;;;;;;;-128.00;-1.00;-1.00;18474;295;7506016;-32
2023/03/10 10:11:13;;;;;;;3.80;1.70;;;;;;;-128.00;-1.00;-1.00;18501;306;7504195;-33
2023/03/10 10:13:39;;;;;;;3.30;1.20;;;;;;;-128.00;-1.00;-1.00;18542;294;7505093;-33
2023/03/10 10:16:21;;;;;;;1.30;0.70;;;;;;;-128.00;-1.00;-1.00;18500;294;7504966;-36
2023/03/10 10:19:06;;;;;;;1.90;0.60;;;;;;;-128.00;-1.00;-1.00;18499;294;7505949;-33
2023/03/10 10:21:56;;;;;;;2.20;1.00;;;;;;;-128.00;-1.00;-1.00;18497;294;7505856;-33
2023/03/10 10:24:23;;;;;;;3.00;1.90;;;;;;;-128.00;-1.00;-1.00;18531;294;7504619;-32
2023/03/10 10:26:50;;;;;;;4.90;1.30;;;;;;;-128.00;-1.00;-1.00;18505;294;7504408;-32
2023/03/10 10:29:20;;;;;;;3.80;1.70;;;;;;;-128.00;-1.00;-1.00;18510;294;7504874;-35
2023/03/10 10:32:01;;;;;;;11.50;1.90;;;;;;;-128.00;-1.00;-1.00;18481;322;7504946;-35
2023/03/10 10:34:27;;;;;;;10.10;1.10;;;;;;;-128.00;-1.00;-1.00;18453;294;7506100;-31
2023/03/10 10:36:54;;;;;;;1.00;0.80;;;;;;;-128.00;-1.00;-1.00;18489;287;7504562;-31
2023/03/10 10:39:24;;;;;;;1.70;1.20;;;;;;;-128.00;-1.00;-1.00;18490;294;7504818;-31
2023/03/10 10:41:50;;;;;;;4.40;1.70;;;;;;;-128.00;-1.00;-1.00;18467;310;7505325;-34
2023/03/10 10:44:17;;;;;;;3.20;1.50;;;;;;;-128.00;-1.00;-1.00;18498;294;7505119;-31
2023/03/10 10:46:53;;;;;;;2.60;1.00;;;;;;;-128.00;-1.00;-1.00;18501;334;7504936;-35
2023/03/10 10:49:25;;;;;;;9.50;1.70;;;;;;;-128.00;-1.00;-1.00;18488;334;7504778;-35
2023/03/10 10:52:04;;;;;;;13.70;1.30;;;;;;;-128.00;-1.00;-1.00;18480;346;7505084;-35
2023/03/10 10:54:37;;;;;;;2.00;0.70;;;;;;;-128.00;-1.00;-1.00;18489;347;7504722;-35
2023/03/10 10:57:12;;;;;;;6.00;0.90;;;;;;;-128.00;-1.00;-1.00;18509;322;7506131;-35
2023/03/10 10:59:38;;;;;;;3.10;0.70;;;;;;;-128.00;-1.00;-1.00;18464;295;7505880;-35
2023/03/10 11:02:21;;;;;;;5.00;1.10;;;;;;;-128.00;-1.00;-1.00;18515;298;7506034;-32
2023/03/10 11:45:51;;;;;;;1.10;0.30;;;;;;;-99.60;11.13;19405.13;98017;283;1545253;-32
2023/03/10 11:48:41;;;;;;;1.30;0.60;;;;;;;-128.00;-1.00;-1.00;97490;296;1005352;-35
2023/03/10 11:51:15;;;;;;;1.50;0.60;;;;;;;-128.00;-1.00;-1.00;97662;294;1004779;-36
2023/03/10 11:53:54;;;;;;;2.30;0.70;;;;;;;-128.00;-1.00;-1.00;97638;294;1005099;-31
2023/03/10 11:56:21;;;;;;;2.10;0.40;;;;;;;-128.00;-1.00;-1.00;97591;294;1005499;-34
2023/03/10 11:58:54;;;;;;;4.60;0.90;;;;;;;-128.00;-1.00;-1.00;97789;294;1004532;-34
2023/03/10 12:01:25;;;;;;;2.70;0.40;;;;;;;-128.00;-1.00;-1.00;97674;284;1005238;-31
2023/03/10 12:03:58;;;;;;;0.90;0.60;;;;;;;-128.00;-1.00;-1.00;97690;296;1005329;-34
2023/03/10 12:06:28;;;;;;;3.50;0.50;;;;;;;-128.00;-1.00;-1.00;97684;294;1004500;-35
2023/03/10 12:08:54;;;;;;;1.40;0.40;;;;;;;-128.00;-1.00;-1.00;97700;294;1005306;-32
2023/03/10 12:11:21;;;;;;;0.50;0.50;;;;;;;-128.00;-1.00;-1.00;97776;294;1005959;-29
2023/03/10 12:13:49;;;;;;;1.30;0.40;;;;;;;-128.00;-1.00;-1.00;97813;294;1005703;-32
2023/03/10 12:16:18;;;;;;;0.90;0.20;;;;;;;-128.00;-1.00;-1.00;97663;294;1004338;-35
2023/03/10 12:18:44;;;;;;;0.60;0.20;;;;;;;-128.00;-1.00;-1.00;97752;283;1004498;-30
2023/03/10 12:21:17;;;;;;;1.70;0.60;;;;;;;-128.00;-1.00;-1.00;97634;294;1004975;-34
2023/03/10 12:23:49;;;;;;;0.50;0.20;;;;;;;-128.00;-1.00;-1.00;97567;283;1004756;-34
2023/03/10 12:26:33;;;;;;;0.90;0.30;;;;;;;-128.00;-1.00;-1.00;97656;295;1005646;-34
2023/03/10 12:29:23;;;;;;;1.60;0.50;;;;;;;-128.00;-1.00;-1.00;97716;294;1005611;-31
2023/03/10 12:31:50;;;;;;;0.50;0.30;;;;;;;-128.00;-1.00;-1.00;97695;291;1005515;-31
2023/03/10 12:34:27;;;;;;;0.60;0.40;;;;;;;-128.00;-1.00;-1.00;97632;294;1004723;-37
2023/03/10 12:37:01;;;;;;;1.70;0.30;;;;;;;-128.00;-1.00;-1.00;97708;295;1004344;-29
2023/03/10 12:39:31;;;;;;;1.10;0.40;;;;;;;-128.00;-1.00;-1.00;97680;295;1005651;-30
2023/03/10 12:42:01;;;;;;;1.30;0.40;;;;;;;-128.00;-1.00;-1.00;97616;294;1005421;-29
2023/03/10 12:44:40;;;;;;;1.30;0.40;;;;;;;-128.00;-1.00;-1.00;97533;294;1005389;-30
2023/03/10 12:47:16;;;;;;;1.00;0.50;;;;;;;-128.00;-1.00;-1.00;97618;295;1005738;-32
2023/03/10 12:49:57;;;;;;;1.60;0.30;;;;;;;-128.00;-1.00;-1.00;97605;295;1005549;-35